Time;durP1;ratioP1;P1;durP2;ratioP2;P2;SDS_P1;SDS_P2;PMS_P1;PMS_P2;Temp;Humidity;BMP_temperature;BMP_pressure;BME280_temperature;BME280_humidity;BME280_pressure;Samples;Min_cycle;Max_cycle;Signal;HPM_P1;HPM_P2
2021/08/02 00:00:38;;;;;;;13.48;5.75;;;;;;;13.20;97.97;95991.03;5087950;28;20051;-81
2021/08/02 00:03:13;;;;;;;18.95;6.38;;;;;;;13.11;98.47;95997.84;5089331;28;20056;-81
2021/08/02 00:05:44;;;;;;;16.75;6.15;;;;;;;13.22;98.20;95988.16;5088975;28;20492;-84
2021/08/02 00:08:16;;;;;;;13.68;6.95;;;;;;;13.21;98.18;95991.81;5088017;28;20224;-85
2021/08/02 00:10:41;;;;;;;16.17;6.65;;;;;;;13.26;97.92;95992.66;5086931;28;20088;-81
2021/08/02 00:13:13;;;;;;;17.20;6.68;;;;;;;13.29;97.49;96005.38;5088222;28;20037;-82
2021/08/02 00:15:44;;;;;;;13.93;6.53;;;;;;;13.30;97.24;95995.59;5086736;28;20040;-82
2021/08/02 00:18:11;;;;;;;17.38;6.70;;;;;;;13.38;97.16;95998.53;5069301;28;20045;-82
2021/08/02 00:20:37;;;;;;;15.20;6.28;;;;;;;13.52;96.36;96004.13;5086580;28;20036;-82
2021/08/02 00:23:06;;;;;;;14.45;6.85;;;;;;;13.45;96.29;96008.06;5088918;28;20044;-81
2021/08/02 00:25:35;;;;;;;14.25;6.75;;;;;;;13.32;96.49;96004.84;5089469;28;20135;-82
2021/08/02 00:28:02;;;;;;;16.08;6.90;;;;;;;13.29;97.17;96002.72;5087195;28;20090;-82
2021/08/02 00:30:29;;;;;;;13.40;6.78;;;;;;;13.30;97.19;95999.03;5087682;28;20040;-81
2021/08/02 00:32:56;;;;;;;15.85;7.05;;;;;;;13.27;97.38;96004.81;5087170;28;20059;-82
2021/08/02 00:35:22;;;;;;;12.52;6.80;;;;;;;13.29;97.71;96002.72;5070059;28;20062;-82
2021/08/02 00:37:54;;;;;;;24.00;8.07;;;;;;;13.31;97.71;96002.47;5089403;28;20035;-84
2021/08/02 00:40:51;;;;;;;20.63;7.07;;;;;;;13.22;97.60;95999.50;5092149;28;20044;-85
2021/08/02 00:43:44;;;;;;;17.10;7.85;;;;;;;13.22;97.85;96004.78;5085817;28;20036;-84
2021/08/02 00:46:13;;;;;;;17.02;7.82;;;;;;;13.27;97.01;96007.47;5083575;28;20068;-83
2021/08/02 00:48:46;;;;;;;17.83;7.45;;;;;;;13.33;96.92;96000.34;5082873;28;20040;-85
2021/08/02 00:51:14;;;;;;;16.65;8.52;;;;;;;13.19;97.45;96004.50;5089943;28;20097;-85
2021/08/02 00:53:42;;;;;;;18.88;7.70;;;;;;;13.18;97.39;95998.41;5089002;28;20029;-86
2021/08/02 00:56:08;;;;;;;16.40;7.32;;;;;;;13.12;97.58;96004.69;5097145;28;20031;-84
2021/08/02 00:58:35;;;;;;;15.10;8.32;;;;;;;13.12;97.60;95996.78;5084023;28;20563;-86
2021/08/02 01:01:01;;;;;;;16.65;7.93;;;;;;;13.07;97.58;95994.91;5066710;28;20040;-83
2021/08/02 01:03:29;;;;;;;13.45;7.63;;;;;;;13.23;97.04;95995.81;5086585;28;20094;-83
2021/08/02 01:05:56;;;;;;;;;;;;;;;13.05;97.64;95998.88;5088913;28;20400;-84
2021/08/02 01:08:24;;;;;;;15.80;8.02;;;;;;;12.94;97.86;95994.59;5094017;28;19908;-83
2021/08/02 01:10:57;;;;;;;16.85;8.20;;;;;;;12.92;98.07;95991.41;5090578;28;20148;-83
2021/08/02 01:13:25;;;;;;;18.20;8.07;;;;;;;12.88;98.29;95989.28;5097679;28;20040;-85
2021/08/02 01:15:55;;;;;;;18.70;9.02;;;;;;;12.88;98.17;95991.13;5092201;28;20025;-82
2021/08/02 01:18:23;;;;;;;19.05;8.40;;;;;;;12.86;98.63;95993.19;5097850;28;20032;-83
2021/08/02 01:20:50;;;;;;;17.45;8.70;;;;;;;12.92;98.01;95994.84;5097984;28;20059;-83
2021/08/02 01:23:18;;;;;;;25.02;8.77;;;;;;;13.07;96.91;95996.75;5093031;28;20105;-82
2021/08/02 01:26:13;;;;;;;19.83;8.35;;;;;;;12.88;97.83;95994.56;5064721;28;20488;-81
2021/08/02 01:29:16;;;;;;;16.13;7.90;;;;;;;12.96;97.77;95989.84;5081988;28;20048;-82
2021/08/02 01:31:42;;;;;;;15.90;8.23;;;;;;;12.98;98.08;95998.31;5087194;28;20020;-82
2021/08/02 01:34:10;;;;;;;20.48;8.82;;;;;;;13.10;97.43;96001.53;5083860;28;20106;-82
2021/08/02 01:36:36;;;;;;;15.38;9.30;;;;;;;13.12;97.50;96002.06;5086052;28;20052;-82
2021/08/02 01:39:05;;;;;;;15.57;8.02;;;;;;;13.15;97.66;95993.63;5082304;28;20045;-82
2021/08/02 01:41:31;;;;;;;18.83;8.63;;;;;;;13.19;97.58;95999.22;5082710;28;20032;-82
2021/08/02 01:43:59;;;;;;;16.75;8.75;;;;;;;13.35;96.77;96009.63;5064743;28;20075;-81
2021/08/02 01:46:40;;;;;;;24.77;8.93;;;;;;;13.29;96.79;96008.00;5081014;28;20040;-82
2021/08/02 01:49:15;;;;;;;15.88;8.30;;;;;;;13.33;97.20;96001.13;5082740;28;20063;-81
2021/08/02 01:51:49;;;;;;;18.35;9.93;;;;;;;13.18;97.31;96003.69;5062876;28;20040;-81
2021/08/02 01:54:29;;;;;;;17.80;9.10;;;;;;;13.23;97.50;96001.09;5061453;28;20128;-81
2021/08/02 01:57:02;;;;;;;18.65;9.75;;;;;;;13.10;97.93;96007.59;5080713;28;20090;-82
2021/08/02 01:59:31;;;;;;;21.05;10.05;;;;;;;13.06;98.57;96005.72;5080216;28;20036;-81
2021/08/02 02:02:02;;;;;;;20.83;10.82;;;;;;;13.05;98.06;96004.16;5081001;28;20116;-82
2021/08/02 02:04:32;;;;;;;20.02;10.77;;;;;;;12.99;98.57;96005.19;5080954;28;20107;-84
2021/08/02 02:07:00;;;;;;;26.90;11.90;;;;;;;13.00;99.00;96006.75;5096983;28;20070;-84
2021/08/02 02:09:34;;;;;;;21.70;11.48;;;;;;;13.04;98.90;96003.34;5095656;28;20024;-83
2021/08/02 02:12:01;;;;;;;20.83;10.63;;;;;;;13.08;98.51;96009.72;5096631;28;20092;-83
2021/08/02 02:14:29;;;;;;;21.98;10.90;;;;;;;12.98;98.32;96009.66;5087157;28;20044;-83
2021/08/02 02:17:00;;;;;;;24.05;11.90;;;;;;;13.04;98.39;96002.56;5080100;28;20185;-82
2021/08/02 02:19:28;;;;;;;20.63;11.07;;;;;;;12.91;99.18;96001.16;5079023;28;20040;-82
2021/08/02 02:21:55;;;;;;;21.20;11.05;;;;;;;12.97;98.74;96001.97;5077332;28;20051;-82
2021/08/02 02:24:21;;;;;;;24.38;10.73;;;;;;;12.96;98.77;96014.38;5081793;28;20044;-82
2021/08/02 02:26:49;;;;;;;22.60;11.75;;;;;;;12.85;99.04;96005.59;5094727;28;20044;-85
2021/08/02 02:29:16;;;;;;;21.85;10.60;;;;;;;12.87;98.94;96008.81;5095981;28;20039;-87
2021/08/02 02:31:45;;;;;;;20.65;10.10;;;;;;;12.93;98.84;96006.19;5091245;28;20100;-85
2021/08/02 02:34:14;;;;;;;19.92;9.88;;;;;;;12.99;98.89;96000.69;5082942;28;20165;-85
2021/08/02 02:36:41;;;;;;;21.25;9.95;;;;;;;12.97;98.58;96009.91;5064372;28;20512;-85
2021/08/02 02:39:08;;;;;;;18.27;9.95;;;;;;;13.10;98.31;96006.81;5083496;28;20427;-85
2021/08/02 02:41:34;;;;;;;17.98;10.07;;;;;;;12.98;98.67;96001.75;5094372;28;20034;-85
2021/08/02 02:44:04;;;;;;;19.67;9.68;;;;;;;12.97;98.52;96007.25;5078752;28;20036;-86
2021/08/02 02:46:31;;;;;;;18.98;9.82;;;;;;;13.01;98.56;96010.97;5096347;28;20044;-86
2021/08/02 02:48:58;;;;;;;18.80;9.57;;;;;;;12.99;99.04;96005.19;5096676;28;20024;-85
2021/08/02 02:51:28;;;;;;;19.55;9.65;;;;;;;13.02;98.87;95999.38;5094065;28;20041;-85
2021/08/02 02:53:55;;;;;;;16.67;8.82;;;;;;;13.00;98.67;96009.41;5093054;28;20066;-85
2021/08/02 02:56:22;;;;;;;17.00;9.70;;;;;;;12.88;98.68;96001.69;5076687;28;20040;-85
2021/08/02 02:58:48;;;;;;;20.15;8.82;;;;;;;12.96;98.42;96005.66;5077364;28;20044;-85
2021/08/02 03:01:21;;;;;;;18.23;9.25;;;;;;;12.93;98.31;96003.56;5060749;22;20418;-78
2021/08/02 03:03:50;;;;;;;20.20;9.05;;;;;;;12.98;98.24;96008.88;5037273;28;20052;-77
2021/08/02 03:06:17;;;;;;;19.17;8.98;;;;;;;12.93;98.34;96011.47;5040010;28;20068;-78
2021/08/02 03:08:44;;;;;;;16.80;8.82;;;;;;;13.01;97.68;96021.53;5034438;28;20085;-77
2021/08/02 03:11:12;;;;;;;24.48;9.32;;;;;;;12.97;98.48;96015.19;5036142;28;20091;-77
2021/08/02 03:13:40;;;;;;;18.38;9.45;;;;;;;12.89;98.74;96016.47;5036538;28;20429;-77
2021/08/02 03:16:06;;;;;;;18.30;9.30;;;;;;;12.87;98.44;96015.94;5019483;28;20049;-77
2021/08/02 03:18:33;;;;;;;20.13;9.50;;;;;;;12.84;98.82;96025.13;5019369;28;20064;-77
2021/08/02 03:20:59;;;;;;;17.27;9.45;;;;;;;12.85;98.84;96016.16;5019479;28;20253;-77
2021/08/02 03:23:30;;;;;;;21.10;9.38;;;;;;;12.85;98.30;96026.72;5018338;28;20068;-78
2021/08/02 03:26:00;;;;;;;18.40;8.68;;;;;;;12.76;99.06;96025.63;5017701;28;20048;-78
2021/08/02 03:28:31;;;;;;;20.20;9.88;;;;;;;12.84;98.73;96027.78;5037470;28;20069;-78
2021/08/02 03:31:00;;;;;;;18.50;9.10;;;;;;;12.99;98.22;96027.09;5018499;28;20041;-78
2021/08/02 03:33:33;;;;;;;18.42;9.68;;;;;;;12.90;98.32;96033.09;5035993;28;20064;-78
2021/08/02 03:36:04;;;;;;;18.13;9.23;;;;;;;12.88;99.07;96036.00;5019146;28;20045;-78
2021/08/02 03:38:30;;;;;;;20.15;9.10;;;;;;;12.99;98.23;96031.56;5038979;28;20523;-77
2021/08/02 03:41:00;;;;;;;17.85;8.70;;;;;;;12.89;98.47;96037.59;5021239;28;20041;-77
2021/08/02 03:43:26;;;;;;;20.77;9.48;;;;;;;12.98;98.29;96038.72;5038966;28;20536;-78
2021/08/02 03:45:53;;;;;;;17.77;9.15;;;;;;;13.05;97.80;96041.13;5020803;28;20045;-77
2021/08/02 03:48:22;;;;;;;17.40;9.02;;;;;;;13.12;97.32;96039.03;5021755;28;20041;-78
2021/08/02 03:50:49;;;;;;;19.27;9.88;;;;;;;12.95;98.04;96041.06;5039098;28;20033;-77
2021/08/02 03:53:16;;;;;;;19.02;9.50;;;;;;;12.91;98.49;96043.38;5039704;28;20045;-79
2021/08/02 03:55:46;;;;;;;24.95;10.85;;;;;;;12.91;98.47;96050.53;5021887;28;20045;-78
2021/08/02 03:58:12;;;;;;;19.20;9.52;;;;;;;12.99;98.53;96042.13;5039070;28;20041;-79
2021/08/02 04:00:37;;;;;;;20.55;10.70;;;;;;;12.78;98.69;96055.19;5039409;28;20049;-79
2021/08/02 04:03:07;;;;;;;20.85;9.95;;;;;;;12.87;98.47;96061.59;5039936;28;20041;-79
2021/08/02 04:05:33;;;;;;;20.35;10.20;;;;;;;12.89;98.74;96058.69;5022303;28;20064;-78
2021/08/02 04:07:58;;;;;;;19.23;10.25;;;;;;;12.96;98.83;96061.91;5037569;28;20049;-78
2021/08/02 04:10:27;;;;;;;20.67;10.80;;;;;;;12.99;98.16;96071.97;5038259;28;20041;-77
2021/08/02 04:12:53;;;;;;;20.77;9.63;;;;;;;12.98;97.58;96062.47;5021072;28;20108;-76
2021/08/02 04:15:19;;;;;;;22.35;10.05;;;;;;;12.97;98.16;96067.97;5021574;28;20080;-77
2021/08/02 04:17:44;;;;;;;16.08;9.10;;;;;;;13.08;97.57;96067.03;5038256;28;20041;-78
2021/08/02 04:20:11;;;;;;;19.13;9.93;;;;;;;12.95;97.77;96068.25;5038340;28;20048;-77
2021/08/02 04:22:37;;;;;;;19.83;9.43;;;;;;;12.93;97.65;96073.00;5020412;28;20102;-78
2021/08/02 04:25:03;;;;;;;18.52;10.02;;;;;;;12.92;98.10;96075.91;5041601;28;20046;-77
2021/08/02 04:27:30;;;;;;;21.58;10.07;;;;;;;12.90;98.22;96077.97;5020206;28;20057;-77
2021/08/02 04:29:56;;;;;;;21.77;9.65;;;;;;;13.03;97.90;96080.19;5019959;28;20045;-76
2021/08/02 04:32:21;;;;;;;17.13;9.43;;;;;;;12.87;97.89;96082.72;5038048;28;20043;-76
2021/08/02 04:34:47;;;;;;;19.58;9.27;;;;;;;12.92;98.31;96092.53;5020822;28;20064;-78
2021/08/02 04:37:13;;;;;;;18.35;9.90;;;;;;;13.11;97.85;96084.97;5038086;28;20037;-77
2021/08/02 04:39:38;;;;;;;22.75;9.90;;;;;;;13.17;97.44;96089.25;5038109;28;20037;-77
2021/08/02 04:42:04;;;;;;;18.73;9.23;;;;;;;13.07;97.58;96086.53;5038396;28;20133;-76
2021/08/02 04:44:31;;;;;;;18.23;10.20;;;;;;;13.02;97.60;96083.84;5037999;28;20050;-77
2021/08/02 04:46:56;;;;;;;22.00;9.80;;;;;;;13.27;96.54;96091.19;5037693;28;20053;-77
2021/08/02 04:49:22;;;;;;;18.48;9.68;;;;;;;13.23;96.54;96085.59;5036332;28;20046;-77
2021/08/02 04:51:48;;;;;;;20.52;9.48;;;;;;;13.06;97.02;96092.88;5038046;28;20021;-79
2021/08/02 04:54:13;;;;;;;18.50;8.88;;;;;;;13.12;97.43;96100.56;5037250;28;20378;-76
2021/08/02 04:56:39;;;;;;;16.88;8.45;;;;;;;13.21;96.73;96098.28;5036750;28;20041;-77
2021/08/02 04:59:04;;;;;;;17.67;9.20;;;;;;;13.15;96.33;96099.28;5040789;28;20037;-77
2021/08/02 05:01:31;;;;;;;20.25;8.80;;;;;;;13.16;95.88;96094.78;5041303;28;20051;-77
2021/08/02 05:03:57;;;;;;;17.25;8.32;;;;;;;13.33;95.54;96093.59;5020697;28;20041;-77
2021/08/02 05:06:23;;;;;;;18.33;8.85;;;;;;;13.21;95.09;96095.66;5037522;28;20042;-77
2021/08/02 05:08:48;;;;;;;15.93;7.93;;;;;;;13.38;94.94;96087.56;5036633;28;20249;-78
2021/08/02 05:11:14;;;;;;;17.42;7.75;;;;;;;13.43;94.57;96092.06;5037464;28;20053;-79
2021/08/02 05:13:40;;;;;;;14.63;7.68;;;;;;;13.26;95.65;96095.69;5039473;28;20064;-79
2021/08/02 05:16:06;;;;;;;17.13;7.30;;;;;;;13.12;96.21;96099.78;5040643;28;20049;-77
2021/08/02 05:18:34;;;;;;;14.88;7.32;;;;;;;13.16;96.16;96094.78;5042255;28;20040;-79
2021/08/02 05:21:00;;;;;;;;;;;;;;;12.92;97.29;96107.56;5067604;28;20523;-79
2021/08/02 05:23:26;;;;;;;16.95;6.85;;;;;;;13.02;96.89;96102.34;5060259;28;19920;-79
2021/08/02 05:25:54;;;;;;;17.40;7.45;;;;;;;12.95;97.35;96113.13;5052333;28;20095;-77
2021/08/02 05:28:20;;;;;;;19.27;8.10;;;;;;;13.06;96.84;96112.16;5037771;28;20037;-78
2021/08/02 05:30:46;;;;;;;15.73;8.40;;;;;;;12.99;96.50;96105.50;5028267;28;20060;-77
2021/08/02 05:33:12;;;;;;;15.80;7.50;;;;;;;13.10;96.96;96123.00;5035530;28;20092;-77
2021/08/02 05:35:39;;;;;;;18.80;7.93;;;;;;;13.06;96.93;96119.28;5051147;28;20037;-77
2021/08/02 05:38:05;;;;;;;16.58;7.93;;;;;;;13.14;96.53;96119.63;5034641;28;20061;-77
2021/08/02 05:40:31;;;;;;;15.88;7.88;;;;;;;13.14;96.85;96121.47;5034913;28;20041;-82
2021/08/02 05:42:56;;;;;;;18.65;8.15;;;;;;;13.25;95.85;96120.50;5027693;28;20071;-79
2021/08/02 05:45:22;;;;;;;16.35;7.95;;;;;;;13.11;96.31;96122.75;5031757;28;20045;-80
2021/08/02 05:47:52;;;;;;;19.02;8.10;;;;;;;13.18;96.14;96117.25;5050153;28;20109;-79
2021/08/02 05:50:22;;;;;;;20.13;8.60;;;;;;;13.10;96.51;96123.81;5035315;28;20115;-78
2021/08/02 05:52:49;;;;;;;15.75;7.68;;;;;;;13.11;96.26;96120.09;5057616;28;20045;-78
2021/08/02 05:55:17;;;;;;;14.07;7.20;;;;;;;13.29;95.62;96121.59;5057432;28;20033;-77
2021/08/02 05:57:47;;;;;;;20.15;7.90;;;;;;;13.21;94.29;96119.41;5029610;28;20056;-81
2021/08/02 06:00:14;;;;;;;16.63;7.35;;;;;;;13.34;94.42;96118.97;5052341;28;20048;-84
2021/08/02 06:02:40;;;;;;;17.45;7.47;;;;;;;13.18;94.29;96116.44;5047374;28;20018;-84
2021/08/02 06:05:06;;;;;;;16.33;7.65;;;;;;;13.11;95.14;96124.59;5038244;28;20064;-81
2021/08/02 06:07:33;;;;;;;16.90;7.65;;;;;;;13.16;94.71;96121.19;5054437;28;20037;-81
2021/08/02 06:10:03;;;;;;;21.83;8.25;;;;;;;13.35;94.61;96131.16;5029203;28;20042;-82
2021/08/02 06:12:28;;;;;;;16.30;7.95;;;;;;;13.32;93.53;96136.94;5043970;28;20052;-82
2021/08/02 06:14:56;;;;;;;17.13;7.75;;;;;;;13.37;93.63;96133.53;5051987;28;20026;-84
2021/08/02 06:17:22;;;;;;;16.02;7.68;;;;;;;13.34;94.22;96134.81;5050051;28;20034;-80
2021/08/02 06:19:47;;;;;;;16.08;8.43;;;;;;;13.36;93.48;96143.31;5054824;28;20083;-76
2021/08/02 06:22:16;;;;;;;19.13;8.40;;;;;;;13.46;93.50;96139.13;5051899;28;20052;-78
2021/08/02 06:24:42;;;;;;;18.08;8.48;;;;;;;13.56;92.98;96137.34;5041670;28;20065;-78
2021/08/02 06:27:09;;;;;;;18.13;8.50;;;;;;;13.62;92.70;96138.16;5044782;28;20037;-79
2021/08/02 06:29:35;;;;;;;16.50;8.57;;;;;;;13.67;92.54;96143.50;5024117;28;20033;-80
2021/08/02 06:32:01;;;;;;;16.60;8.80;;;;;;;13.71;91.85;96143.75;5032915;28;20044;-80
2021/08/02 06:34:26;;;;;;;16.88;8.68;;;;;;;13.72;92.44;96134.75;5009383;28;20456;-78
2021/08/02 06:36:54;;;;;;;16.55;8.35;;;;;;;13.81;92.15;96152.53;5035869;28;20450;-80
2021/08/02 06:39:20;;;;;;;16.90;8.25;;;;;;;14.04;91.56;96153.16;5028839;28;20117;-82
2021/08/02 06:41:46;;;;;;;15.95;7.97;;;;;;;14.00;91.76;96152.09;5028314;28;20056;-80
2021/08/02 06:44:15;;;;;;;19.73;9.05;;;;;;;14.36;91.30;96153.78;5028660;28;20113;-80
2021/08/02 06:46:41;;;;;;;16.67;8.88;;;;;;;14.54;89.80;96152.56;5013482;28;20034;-79
2021/08/02 06:49:09;;;;;;;16.42;8.70;;;;;;;14.48;88.80;96150.16;5009860;28;20105;-79
2021/08/02 06:51:35;;;;;;;16.30;8.77;;;;;;;14.70;88.30;96156.03;5037310;28;20059;-79
2021/08/02 06:54:01;;;;;;;19.13;9.35;;;;;;;14.73;88.96;96160.78;5032098;28;20561;-80
2021/08/02 06:56:27;;;;;;;14.98;8.55;;;;;;;14.89;87.59;96157.09;5026791;28;20045;-80
2021/08/02 06:58:52;;;;;;;16.92;8.82;;;;;;;14.93;86.42;96155.50;5009222;28;20084;-82
2021/08/02 07:01:19;;;;;;;15.25;8.65;;;;;;;14.90;86.64;96156.03;5028190;28;20042;-78
2021/08/02 07:03:45;;;;;;;14.43;8.18;;;;;;;14.99;86.40;96158.97;5027923;28;20030;-81
2021/08/02 07:06:10;;;;;;;16.55;7.90;;;;;;;15.17;86.41;96160.28;5010670;28;20049;-79
2021/08/02 07:08:37;;;;;;;15.98;8.55;;;;;;;15.04;85.26;96160.81;5027743;28;20069;-80
2021/08/02 07:11:03;;;;;;;16.60;7.57;;;;;;;15.14;84.07;96161.63;5027595;28;20037;-79
2021/08/02 07:13:29;;;;;;;14.38;8.13;;;;;;;14.82;85.52;96159.22;5029030;28;20446;-79
2021/08/02 07:15:54;;;;;;;15.70;8.00;;;;;;;15.00;85.93;96163.19;5027599;28;20046;-80
2021/08/02 07:18:24;;;;;;;13.57;7.68;;;;;;;15.12;85.92;96165.56;5027828;28;20080;-81
2021/08/02 07:20:52;;;;;;;13.32;7.03;;;;;;;15.29;84.84;96157.38;5007800;28;20038;-81
2021/08/02 07:23:18;;;;;;;13.75;7.72;;;;;;;15.21;85.31;96162.13;5023915;28;20053;-81
2021/08/02 07:25:46;;;;;;;13.77;7.75;;;;;;;15.43;84.56;96153.88;5006759;28;20106;-80
2021/08/02 07:28:12;;;;;;;13.55;7.90;;;;;;;15.67;84.19;96158.66;5024421;28;20083;-79
2021/08/02 07:30:38;;;;;;;14.35;8.10;;;;;;;15.74;83.55;96159.16;5024910;28;20093;-81
2021/08/02 07:33:03;;;;;;;15.98;7.57;;;;;;;15.68;82.28;96157.59;5007393;28;20037;-79
2021/08/02 07:35:31;;;;;;;14.75;7.75;;;;;;;15.71;82.38;96154.41;5024056;28;20056;-78
2021/08/02 07:37:56;;;;;;;16.63;8.50;;;;;;;15.80;82.24;96160.75;5025492;28;20037;-79
2021/08/02 07:40:22;;;;;;;13.38;7.35;;;;;;;16.06;83.09;96163.31;5007247;28;20053;-80
2021/08/02 07:42:48;;;;;;;12.68;8.02;;;;;;;16.30;81.86;96161.59;5011114;28;20072;-78
2021/08/02 07:45:13;;;;;;;13.68;7.88;;;;;;;16.37;80.58;96166.66;5008400;28;20529;-81
2021/08/02 07:47:41;;;;;;;14.00;7.55;;;;;;;16.57;79.94;96171.03;5025847;28;20108;-78
2021/08/02 07:50:10;;;;;;;;;;;;;;;16.38;80.49;96170.88;5012483;28;20048;-79
2021/08/02 07:52:38;;;;;;;14.85;6.78;;;;;;;16.65;79.58;96170.47;5030160;28;19921;-79
2021/08/02 07:55:05;;;;;;;13.73;7.20;;;;;;;16.65;79.41;96162.50;5030146;28;20050;-80
2021/08/02 07:57:32;;;;;;;11.38;6.63;;;;;;;16.69;77.76;96160.88;5030247;28;20052;-81
2021/08/02 08:00:00;;;;;;;12.77;6.75;;;;;;;16.59;78.84;96167.06;5031277;28;20105;-80
2021/08/02 08:02:26;;;;;;;14.07;6.68;;;;;;;16.85;77.43;96162.41;5031783;28;20025;-81
2021/08/02 08:04:52;;;;;;;13.90;6.57;;;;;;;17.07;76.36;96169.16;5035318;28;20036;-78
2021/08/02 08:07:20;;;;;;;10.80;5.90;;;;;;;17.16;76.37;96168.25;5034927;28;20056;-77
2021/08/02 08:09:49;;;;;;;;;;;;;;;17.34;76.35;96161.50;5014808;28;20057;-80
2021/08/02 08:12:14;;;;;;;12.57;5.88;;;;;;;17.40;75.80;96171.00;5033170;28;20017;-80
2021/08/02 08:14:40;;;;;;;14.85;6.13;;;;;;;17.56;74.28;96167.13;5027809;28;20042;-80
2021/08/02 08:17:06;;;;;;;13.38;6.20;;;;;;;17.73;74.53;96165.94;5030245;28;20052;-79
2021/08/02 08:19:32;;;;;;;12.00;6.47;;;;;;;18.08;72.66;96168.22;5026075;28;20100;-81
2021/08/02 08:21:58;;;;;;;10.13;5.97;;;;;;;18.23;71.71;96161.88;5009645;28;20045;-84
2021/08/02 08:24:26;;;;;;;12.32;6.25;;;;;;;18.78;69.96;96169.44;5008815;28;20073;-84
2021/08/02 08:26:53;;;;;;;13.70;7.40;;;;;;;18.84;69.17;96168.31;5028458;28;20033;-85
2021/08/02 08:29:19;;;;;;;12.48;6.70;;;;;;;18.73;70.45;96167.66;5027451;28;20088;-83
2021/08/02 08:31:45;;;;;;;12.52;6.90;;;;;;;18.81;70.17;96168.88;5010228;28;20049;-84
2021/08/02 08:34:10;;;;;;;13.45;7.28;;;;;;;18.87;68.71;96171.19;5026462;28;20049;-84
2021/08/02 08:36:36;;;;;;;12.85;7.85;;;;;;;18.74;68.47;96179.13;5033713;28;20026;-83
2021/08/02 08:39:03;;;;;;;13.85;8.82;;;;;;;18.55;70.34;96161.22;5017199;28;20041;-83
2021/08/02 08:41:29;;;;;;;14.60;7.88;;;;;;;18.42;70.13;96167.25;5016204;28;20078;-83
2021/08/02 08:43:57;;;;;;;12.52;7.78;;;;;;;18.56;69.15;96164.66;5032039;28;20041;-83
2021/08/02 08:46:24;;;;;;;13.18;7.97;;;;;;;18.76;68.21;96161.75;5030848;28;20125;-84
2021/08/02 08:48:53;;;;;;;13.10;7.07;;;;;;;18.99;67.68;96159.28;5029508;28;20045;-83
2021/08/02 08:51:19;;;;;;;12.25;7.07;;;;;;;19.39;65.97;96157.84;5028506;28;20037;-83
2021/08/02 08:53:45;;;;;;;12.37;6.80;;;;;;;19.65;65.46;96159.00;5028527;28;20052;-83
2021/08/02 08:56:14;;;;;;;13.15;6.80;;;;;;;19.44;64.98;96154.31;5030397;28;20299;-82
2021/08/02 08:58:39;;;;;;;15.20;6.68;;;;;;;19.67;64.84;96156.84;5013368;28;20467;-83
2021/08/02 09:01:07;;;;;;;12.57;6.65;;;;;;;20.59;62.91;96149.69;5058976;22;20129;-81
2021/08/02 09:03:32;;;;;;;11.32;6.45;;;;;;;21.80;59.02;96154.31;5045915;28;20397;-80
2021/08/02 09:06:02;;;;;;;12.15;6.25;;;;;;;21.85;58.91;96151.47;5050583;28;20033;-81
2021/08/02 09:08:28;;;;;;;11.82;5.90;;;;;;;22.33;56.35;96154.19;5053789;28;20113;-81
2021/08/02 09:11:00;;;;;;;11.63;6.25;;;;;;;22.35;55.60;96151.22;5050673;28;20041;-81
2021/08/02 09:13:30;;;;;;;10.60;5.90;;;;;;;21.83;57.67;96156.34;5048558;28;20046;-81
2021/08/02 09:15:58;;;;;;;13.05;6.05;;;;;;;21.47;58.41;96150.06;5029280;28;20041;-80
2021/08/02 09:18:25;;;;;;;14.10;7.85;;;;;;;21.43;59.78;96159.00;5034924;28;20041;-82
2021/08/02 09:20:59;;;;;;;12.65;6.43;;;;;;;20.83;59.96;96159.34;5053235;28;20042;-80
2021/08/02 09:23:25;;;;;;;11.18;5.95;;;;;;;20.55;60.79;96159.38;5047507;28;20056;-81
2021/08/02 09:25:54;;;;;;;12.10;6.53;;;;;;;20.69;60.74;96152.13;5029003;28;20061;-81
2021/08/02 09:28:21;;;;;;;11.38;6.43;;;;;;;20.65;60.00;96164.50;5045677;28;20041;-81
2021/08/02 09:30:57;;;;;;;12.85;6.40;;;;;;;20.90;60.61;96162.38;5045778;28;20048;-81
2021/08/02 09:33:28;;;;;;;12.57;6.00;;;;;;;20.75;59.77;96162.72;5046404;28;20383;-81
2021/08/02 09:36:00;;;;;;;12.57;6.15;;;;;;;20.98;59.56;96158.97;5033794;28;20041;-80
2021/08/02 09:38:25;;;;;;;13.18;6.60;;;;;;;21.01;59.31;96158.38;5051037;28;20045;-81
2021/08/02 09:40:56;;;;;;;11.25;6.07;;;;;;;20.93;61.03;96156.41;5053666;28;20076;-81
2021/08/02 09:43:26;;;;;;;11.40;5.63;;;;;;;21.48;59.18;96154.31;5048856;28;20041;-81
2021/08/02 09:45:54;;;;;;;13.55;6.55;;;;;;;21.66;57.89;96157.84;5048855;28;20044;-81
2021/08/02 09:48:35;;;;;;;13.38;6.90;;;;;;;21.46;58.58;96156.47;5042793;28;20049;-82
2021/08/02 09:51:08;;;;;;;11.85;5.47;;;;;;;21.33;58.00;96160.03;5046398;28;20061;-81
2021/08/02 09:53:36;;;;;;;11.55;5.47;;;;;;;21.67;56.33;96159.44;5046381;28;20045;-81
2021/08/02 09:56:02;;;;;;;10.27;5.47;;;;;;;21.48;56.62;96148.97;5045754;28;20056;-82
2021/08/02 09:58:28;;;;;;;11.68;5.47;;;;;;;21.37;57.49;96152.19;5029383;28;20079;-82
2021/08/02 10:00:54;;;;;;;9.80;4.85;;;;;;;21.17;56.83;96146.22;5046169;28;20046;-82
2021/08/02 10:03:20;;;;;;;10.02;4.78;;;;;;;21.32;57.45;96146.97;5045996;28;20049;-82
2021/08/02 10:05:49;;;;;;;11.20;5.32;;;;;;;21.27;57.76;96149.75;5045540;28;20397;-82
2021/08/02 10:08:17;;;;;;;12.48;5.10;;;;;;;21.28;57.39;96144.09;5046452;28;20072;-82
2021/08/02 10:10:45;;;;;;;11.05;4.40;;;;;;;21.52;56.54;96143.75;5046088;28;20124;-81
2021/08/02 10:13:22;;;;;;;9.93;4.40;;;;;;;21.79;57.07;96144.69;5045485;28;20095;-81
2021/08/02 10:15:53;;;;;;;9.00;3.85;;;;;;;21.81;55.69;96137.16;5045227;28;20041;-82
2021/08/02 10:18:22;;;;;;;7.68;3.20;;;;;;;21.83;54.46;96137.63;5047046;28;20531;-81
2021/08/02 10:20:48;;;;;;;8.40;3.08;;;;;;;21.73;53.79;96138.66;5053508;28;20053;-80
2021/08/02 10:23:24;;;;;;;8.65;2.80;;;;;;;22.12;54.93;96132.56;5052906;28;20095;-81
2021/08/02 10:25:52;;;;;;;7.88;2.85;;;;;;;21.86;52.82;96134.34;5044914;28;20033;-81
2021/08/02 10:28:19;;;;;;;7.90;2.88;;;;;;;21.73;53.52;96125.28;5053811;28;20041;-81
2021/08/02 10:30:47;;;;;;;7.07;2.97;;;;;;;21.70;54.42;96133.94;5029949;28;20056;-82
2021/08/02 10:33:15;;;;;;;10.65;3.80;;;;;;;21.27;55.78;96131.03;5028233;28;20310;-81
2021/08/02 10:35:43;;;;;;;6.25;2.38;;;;;;;21.07;55.68;96124.28;5049622;28;20057;-82
2021/08/02 10:38:11;;;;;;;7.78;2.78;;;;;;;20.97;56.06;96123.41;5048289;28;20045;-82
2021/08/02 10:40:48;;;;;;;;;;;;;;;21.04;56.34;96120.34;5047177;28;20041;-81
2021/08/02 10:43:24;;;;;;;7.72;2.65;;;;;;;21.26;55.68;96116.06;5027898;28;19921;-83
2021/08/02 10:45:51;;;;;;;7.03;2.60;;;;;;;21.00;55.18;96106.00;5045228;28;20072;-81
2021/08/02 10:48:25;;;;;;;7.10;2.63;;;;;;;21.38;54.64;96105.63;5045264;28;20041;-82
2021/08/02 10:50:51;;;;;;;8.85;2.83;;;;;;;21.68;54.56;96107.47;5045165;28;20490;-82
2021/08/02 10:53:20;;;;;;;6.75;2.88;;;;;;;21.97;53.34;96106.94;5046204;28;20048;-83
2021/08/02 10:55:52;;;;;;;8.05;2.65;;;;;;;21.85;53.14;96104.09;5046119;28;20087;-81
2021/08/02 10:58:25;;;;;;;6.75;2.53;;;;;;;21.22;54.56;96099.81;5054930;28;20052;-81
2021/08/02 11:00:55;;;;;;;8.23;2.70;;;;;;;21.34;53.73;96101.97;5054752;28;20032;-81
2021/08/02 11:03:29;;;;;;;7.63;2.38;;;;;;;21.34;54.17;96102.75;5053752;28;20037;-81
2021/08/02 11:05:54;;;;;;;16.88;7.13;;;;;;;21.06;53.35;96096.75;5053631;28;20114;-81
2021/08/02 11:08:22;;;;;;;8.48;3.20;;;;;;;21.12;53.86;96089.38;5053500;28;20105;-82
2021/08/02 11:10:49;;;;;;;;;;;;;;;21.48;52.73;96095.44;5050826;28;20105;-81
2021/08/02 11:13:23;;;;;;;7.25;2.80;;;;;;;21.43;53.15;96092.09;5032998;28;19936;-81
2021/08/02 11:15:49;;;;;;;6.97;2.80;;;;;;;21.27;52.28;96090.88;5051287;28;20053;-81
2021/08/02 11:18:25;;;;;;;7.50;2.70;;;;;;;21.35;52.04;96088.28;5050076;28;20041;-81
2021/08/02 11:20:50;;;;;;;8.68;3.22;;;;;;;21.69;51.01;96082.28;5051494;28;20061;-82
2021/08/02 11:23:16;;;;;;;9.00;2.65;;;;;;;22.23;50.02;96085.63;5051019;28;20092;-81
2021/08/02 11:25:42;;;;;;;7.53;2.50;;;;;;;22.79;48.54;96091.94;5049672;28;20068;-82
2021/08/02 11:28:09;;;;;;;8.02;2.90;;;;;;;22.97;46.37;96083.91;5048284;28;20092;-83
2021/08/02 11:30:35;;;;;;;7.75;3.30;;;;;;;22.75;46.39;96080.25;5050093;28;20057;-80